Time;durP1;ratioP1;P1;durP2;ratioP2;P2;SDS_P1;SDS_P2;PMS_P1;PMS_P2;Temp;Humidity;BMP_temperature;BMP_pressure;BME280_temperature;BME280_humidity;BME280_pressure;Samples;Min_cycle;Max_cycle;Signal;HPM_P1;HPM_P2
2022/08/29 00:01:42;;;;;;;10.32;7.58;;;;;;;18.20;100.00;99315.34;1752937;80;21057;-55
2022/08/29 00:04:08;;;;;;;7.78;6.67;;;;;;;18.12;100.00;99306.94;1750598;79;21278;-55
2022/08/29 00:06:35;;;;;;;10.30;7.87;;;;;;;18.09;100.00;99302.65;1757613;80;21050;-55
2022/08/29 00:09:01;;;;;;;9.98;8.00;;;;;;;18.13;100.00;99301.87;1751760;80;21034;-55
2022/08/29 00:11:29;;;;;;;11.95;8.78;;;;;;;18.17;100.00;99297.89;1750054;80;21093;-55
2022/08/29 00:13:56;;;;;;;11.73;8.03;;;;;;;18.20;100.00;99298.14;1758810;80;21635;-55
2022/08/29 00:16:22;;;;;;;13.72;7.53;;;;;;;18.21;100.00;99289.81;1752246;79;21473;-55
2022/08/29 00:18:49;;;;;;;9.30;7.17;;;;;;;18.25;100.00;99283.61;1752209;79;21648;-55
2022/08/29 00:21:16;;;;;;;12.30;7.58;;;;;;;18.31;100.00;99281.70;1750619;79;21038;-55
2022/08/29 00:23:45;;;;;;;10.32;7.20;;;;;;;18.36;100.00;99284.41;1749009;79;21269;-55
2022/08/29 00:26:12;;;;;;;10.63;7.10;;;;;;;18.40;100.00;99281.77;1756079;80;21473;-55
2022/08/29 00:28:38;;;;;;;8.88;7.35;;;;;;;18.43;100.00;99283.36;1748893;80;21152;-55
2022/08/29 00:31:05;;;;;;;15.25;8.73;;;;;;;18.44;100.00;99287.82;1750915;79;21582;-55
2022/08/29 00:33:31;;;;;;;8.50;7.78;;;;;;;18.44;100.00;99283.73;1750715;79;21004;-55
2022/08/29 00:35:58;;;;;;;8.78;6.55;;;;;;;18.39;100.00;99278.67;1753209;79;21078;-55
2022/08/29 00:38:24;;;;;;;8.68;6.70;;;;;;;18.33;100.00;99283.80;1758921;80;21572;-55
2022/08/29 00:40:53;;;;;;;10.88;6.78;;;;;;;18.26;100.00;99285.34;1748308;79;21057;-55
2022/08/29 00:43:31;;;;;;;5.90;5.35;;;;;;;18.23;100.00;99287.82;1756529;79;21009;-55
2022/08/29 00:46:32;;;;;;;8.65;4.95;;;;;;;18.24;100.00;99285.96;1755815;80;21050;-55
2022/08/29 00:49:03;;;;;;;6.85;5.28;;;;;;;18.25;100.00;99288.56;1752490;79;22171;-55
2022/08/29 00:51:29;;;;;;;8.95;4.45;;;;;;;18.29;100.00;99285.91;1756205;80;20860;-55
2022/08/29 00:54:04;;;;;;;6.92;5.03;;;;;;;18.32;100.00;99278.84;1734851;80;21014;-55
2022/08/29 00:56:30;;;;;;;7.42;5.15;;;;;;;18.34;100.00;99281.44;1752736;80;20903;-55
2022/08/29 00:59:00;;;;;;;6.10;4.17;;;;;;;18.33;100.00;99281.94;1757537;80;20851;-55
2022/08/29 01:01:26;;;;;;;6.17;5.20;;;;;;;18.30;100.00;99275.88;1753381;80;21674;-55
2022/08/29 01:03:52;;;;;;;7.12;4.90;;;;;;;18.26;100.00;99279.39;1755224;80;20950;-55
2022/08/29 01:06:20;;;;;;;7.37;5.80;;;;;;;18.23;100.00;99276.92;1756287;80;20991;-55
2022/08/29 01:08:47;;;;;;;9.93;4.90;;;;;;;18.23;100.00;99285.09;1750733;80;20879;-55
2022/08/29 01:14:00;;;;;;;5.47;3.77;;;;;;;18.27;100.00;99281.62;1734548;80;21090;-55
2022/08/29 01:16:27;;;;;;;8.50;4.70;;;;;;;18.30;100.00;99280.83;1752411;80;21488;-55
2022/08/29 01:18:58;;;;;;;4.30;3.40;;;;;;;18.32;100.00;99282.06;1752978;79;21097;-55
2022/08/29 01:21:42;;;;;;;5.15;3.33;;;;;;;18.32;100.00;99281.57;1755253;80;20911;-55
2022/08/29 01:24:17;;;;;;;4.65;3.00;;;;;;;18.34;100.00;99272.77;1717996;80;20964;-55
2022/08/29 01:26:44;;;;;;;6.42;2.52;;;;;;;18.39;100.00;99273.72;1739076;80;21093;-55
2022/08/29 01:29:11;;;;;;;8.15;2.60;;;;;;;18.44;100.00;99270.11;1700043;82;21135;-55
2022/08/29 01:31:46;;;;;;;4.22;2.50;;;;;;;18.49;100.00;99265.10;1750016;79;21006;-55
2022/08/29 01:34:14;;;;;;;7.10;2.05;;;;;;;18.53;100.00;99270.16;1754317;79;21481;-55
2022/08/29 01:36:49;;;;;;;3.90;1.10;;;;;;;18.59;100.00;99266.55;1760220;79;21113;-55
2022/08/29 01:39:17;;;;;;;5.87;1.30;;;;;;;18.62;100.00;99265.79;1752142;80;22152;-55
2022/08/29 01:41:43;;;;;;;5.95;2.10;;;;;;;18.64;100.00;99266.49;1754050;79;21591;-55
2022/08/29 01:44:12;;;;;;;6.47;1.67;;;;;;;18.63;100.00;99266.12;1756147;79;21025;-55
2022/08/29 01:46:39;;;;;;;4.95;1.45;;;;;;;18.62;100.00;99263.56;1755697;80;21476;-55
2022/08/29 01:49:07;;;;;;;4.15;1.60;;;;;;;18.60;100.00;99262.33;1747187;79;21133;-55
2022/08/29 01:51:34;;;;;;;8.03;1.95;;;;;;;18.59;100.00;99266.55;1751732;79;21506;-55
2022/08/29 01:54:01;;;;;;;2.87;1.37;;;;;;;18.56;100.00;99265.41;1751305;80;21193;-55
2022/08/29 01:56:30;;;;;;;2.85;1.80;;;;;;;18.53;100.00;99265.20;1753959;79;21097;-55
2022/08/29 01:58:59;;;;;;;2.83;1.60;;;;;;;18.51;100.00;99271.28;1745028;79;21030;-54
2022/08/29 02:01:30;;;;;;;7.85;2.87;;;;;;;18.51;100.00;99267.20;1754012;80;21095;-54
2022/08/29 02:04:00;;;;;;;8.28;2.17;;;;;;;18.50;100.00;99264.11;1752703;79;21461;-54
2022/08/29 02:08:39;;;;;;;4.95;2.20;;;;;;;18.46;100.00;99259.41;1789446;78;28185;-55
2022/08/29 02:11:08;;;;;;;4.83;2.45;;;;;;;18.37;100.00;99262.95;1763810;78;20944;-54
2022/08/29 02:13:41;;;;;;;3.75;2.30;;;;;;;18.31;100.00;99259.91;1771385;79;21822;-55
2022/08/29 02:16:08;;;;;;;3.47;1.98;;;;;;;18.26;100.00;99256.23;1765389;79;21006;-55
2022/08/29 02:18:34;;;;;;;3.92;1.60;;;;;;;18.23;100.00;99263.80;1767894;79;20962;-55
2022/08/29 02:21:01;;;;;;;4.53;1.45;;;;;;;18.20;100.00;99259.50;1762702;79;21004;-55
2022/08/29 02:23:27;;;;;;;2.95;1.35;;;;;;;18.19;100.00;99260.50;1762754;79;21046;-55
2022/08/29 02:25:54;;;;;;;3.90;1.98;;;;;;;18.18;100.00;99261.49;1766428;79;21798;-55
2022/08/29 02:28:21;;;;;;;4.85;1.82;;;;;;;18.18;100.00;99261.49;1765297;79;22133;-55
2022/08/29 02:30:50;;;;;;;9.10;2.00;;;;;;;18.18;100.00;99259.27;1768155;79;20986;-55
2022/08/29 02:33:17;;;;;;;3.58;1.42;;;;;;;18.19;100.00;99266.45;1764062;79;21073;-54
2022/08/29 02:35:44;;;;;;;5.67;1.80;;;;;;;18.19;100.00;99266.45;1773301;79;21096;-54
2022/08/29 02:38:10;;;;;;;5.65;2.12;;;;;;;18.19;100.00;99265.95;1765560;79;21259;-54
2022/08/29 02:40:36;;;;;;;4.20;1.65;;;;;;;18.19;100.00;99262.36;1768797;79;21116;-54
2022/08/29 02:43:03;;;;;;;5.70;1.10;;;;;;;18.15;100.00;99267.20;1761459;79;21038;-54
2022/08/29 02:45:30;;;;;;;3.70;1.20;;;;;;;18.14;100.00;99272.27;1767868;79;21065;-54
2022/08/29 02:47:57;;;;;;;2.05;1.25;;;;;;;18.09;100.00;99269.97;1768548;79;22651;-55
2022/08/29 02:50:24;;;;;;;2.15;1.00;;;;;;;18.09;100.00;99275.91;1767515;79;21130;-55
2022/08/29 02:52:51;;;;;;;4.58;1.47;;;;;;;18.07;100.00;99271.95;1766306;79;21515;-55
2022/08/29 02:55:18;;;;;;;5.65;1.20;;;;;;;18.06;100.00;99280.25;1767642;79;21044;-55
2022/08/29 02:57:45;;;;;;;5.17;1.10;;;;;;;18.05;100.00;99283.96;1757716;79;21084;-55
2022/08/29 03:00:17;;;;;;;4.03;1.40;;;;;;;18.02;100.00;99281.03;1745870;80;22669;-54
2022/08/29 03:02:46;;;;;;;2.75;1.17;;;;;;;18.01;100.00;99281.16;1747056;80;21071;-54
2022/08/29 03:05:16;;;;;;;6.97;1.32;;;;;;;17.99;100.00;99282.64;1741750;80;21033;-55
2022/08/29 03:07:42;;;;;;;3.98;1.10;;;;;;;17.95;100.00;99283.05;1740493;80;21115;-55
2022/08/29 03:10:09;;;;;;;2.77;1.10;;;;;;;17.90;100.00;99294.32;1732619;80;21541;-55
2022/08/29 03:12:36;;;;;;;5.20;1.35;;;;;;;17.85;100.00;99291.64;1735074;80;21052;-55
2022/08/29 03:15:04;;;;;;;3.35;1.70;;;;;;;17.80;100.00;99289.78;1733997;80;22770;-54
2022/08/29 03:17:31;;;;;;;2.62;1.02;;;;;;;17.73;100.00;99286.23;1734817;80;21084;-55
2022/08/29 03:19:57;;;;;;;3.75;1.20;;;;;;;17.72;100.00;99288.58;1729693;80;21482;-55
2022/08/29 03:22:25;;;;;;;4.55;1.57;;;;;;;17.69;100.00;99299.72;1733405;80;22257;-55
2022/08/29 03:24:51;;;;;;;2.83;1.42;;;;;;;17.67;100.00;99296.28;1732363;80;21042;-55
2022/08/29 03:27:18;;;;;;;8.53;1.80;;;;;;;17.66;100.00;99300.00;1735230;80;21143;-54
2022/08/29 03:29:44;;;;;;;3.22;2.02;;;;;;;17.67;100.00;99295.42;1732411;80;21030;-55
2022/08/29 03:32:11;;;;;;;4.03;1.72;;;;;;;17.66;100.00;99290.47;1733589;80;21760;-55
2022/08/29 03:34:37;;;;;;;4.70;1.42;;;;;;;17.67;100.00;99292.20;1737187;80;21021;-55
2022/08/29 03:37:04;;;;;;;6.78;1.40;;;;;;;17.70;100.00;99294.64;1732713;80;21095;-55
2022/08/29 03:39:30;;;;;;;3.27;0.88;;;;;;;17.75;100.00;99292.91;1730571;80;21080;-55
2022/08/29 03:41:57;;;;;;;3.22;1.47;;;;;;;17.80;100.00;99289.78;1745281;80;21031;-55
2022/08/29 03:44:23;;;;;;;4.40;1.35;;;;;;;17.84;100.00;99284.46;1738252;80;21051;-55
2022/08/29 03:46:49;;;;;;;3.85;1.40;;;;;;;17.88;100.00;99282.69;1732452;80;21092;-55
2022/08/29 03:49:16;;;;;;;6.17;1.72;;;;;;;17.94;100.00;99286.77;1732370;80;21074;-55
2022/08/29 03:51:42;;;;;;;3.25;1.67;;;;;;;18.00;100.00;99287.09;1729373;80;21136;-55
2022/08/29 03:54:09;;;;;;;8.03;1.55;;;;;;;18.06;100.00;99286.56;1699982;82;21374;-55
2022/08/29 03:56:35;;;;;;;3.83;1.20;;;;;;;18.09;100.00;99287.67;1736044;80;21049;-55
2022/08/29 03:59:02;;;;;;;2.20;1.20;;;;;;;18.14;100.00;99296.29;1730364;80;21139;-55
2022/08/29 04:01:28;;;;;;;3.47;1.30;;;;;;;18.18;100.00;99296.03;1735789;80;21519;-55
2022/08/29 04:03:55;;;;;;;3.27;0.90;;;;;;;18.24;100.00;99296.86;1733798;80;21511;-55
2022/08/29 04:06:23;;;;;;;4.40;1.05;;;;;;;18.33;100.00;99291.97;1726513;80;21116;-55
2022/08/29 04:08:50;;;;;;;6.25;1.10;;;;;;;18.51;100.00;99297.17;1734483;80;20919;-55
2022/08/29 04:11:18;;;;;;;3.77;0.90;;;;;;;18.71;100.00;99292.73;1742164;80;20851;-55
2022/08/29 04:13:44;;;;;;;3.85;1.10;;;;;;;18.96;100.00;99295.49;1740334;80;20903;-55
2022/08/29 04:16:14;;;;;;;2.90;1.10;;;;;;;19.20;100.00;99285.95;1738354;80;21146;-55
2022/08/29 04:18:40;;;;;;;1.90;1.20;;;;;;;19.47;100.00;99292.61;1740073;80;21536;-55
2022/08/29 04:21:08;;;;;;;2.00;1.00;;;;;;;19.73;100.00;99288.87;1753606;80;20862;-55
2022/08/29 04:23:35;;;;;;;1.20;1.10;;;;;;;20.00;100.00;99288.98;1740976;80;20927;-55
2022/08/29 04:26:02;;;;;;;3.75;1.50;;;;;;;20.26;100.00;99296.08;1740147;80;20914;-55
2022/08/29 04:28:28;;;;;;;1.50;1.10;;;;;;;20.42;100.00;99290.90;1746640;80;21492;-55
2022/08/29 04:30:55;;;;;;;6.45;1.62;;;;;;;20.50;100.00;99287.45;1736673;80;21116;-55
2022/08/29 04:33:23;;;;;;;2.83;1.40;;;;;;;20.53;100.00;99286.63;1744240;80;21116;-55
2022/08/29 04:35:50;;;;;;;2.10;1.30;;;;;;;20.53;100.00;99288.50;1738318;80;21105;-55
2022/08/29 04:38:17;;;;;;;3.00;1.75;;;;;;;20.51;100.00;99286.42;1744241;80;21096;-55
2022/08/29 04:40:44;;;;;;;2.77;1.10;;;;;;;20.51;100.00;99292.75;1738959;80;21497;-56
2022/08/29 04:43:10;;;;;;;4.05;1.55;;;;;;;20.57;100.00;99292.69;1742730;80;20969;-56
2022/08/29 04:45:39;;;;;;;4.58;1.67;;;;;;;20.67;100.00;99295.72;1746653;80;21538;-56
2022/08/29 04:48:05;;;;;;;5.62;2.35;;;;;;;20.77;100.00;99291.09;1730811;80;21447;-56
2022/08/29 04:50:32;;;;;;;4.37;2.08;;;;;;;20.89;100.00;99292.27;1739496;80;21081;-56
2022/08/29 04:53:00;;;;;;;6.87;2.87;;;;;;;20.98;100.00;99299.08;1739730;80;21875;-57
2022/08/29 04:55:26;;;;;;;8.78;2.22;;;;;;;21.04;100.00;99295.73;1685979;80;21060;-57
2022/08/29 04:57:55;;;;;;;6.30;2.55;;;;;;;21.06;100.00;99298.32;1734987;80;21510;-57
2022/08/29 05:00:24;;;;;;;5.40;2.37;;;;;;;21.08;100.00;99298.53;1744972;80;21721;-56
2022/08/29 05:02:51;;;;;;;6.78;2.77;;;;;;;21.09;100.00;99298.03;1734477;80;21063;-56
2022/08/29 05:05:17;;;;;;;5.92;3.08;;;;;;;21.09;100.00;99300.27;1739051;80;21142;-57
2022/08/29 05:07:45;;;;;;;6.90;3.12;;;;;;;21.11;100.00;99304.19;1732701;80;21092;-56
2022/08/29 05:10:16;;;;;;;5.67;2.77;;;;;;;21.11;100.00;99299.58;1739823;80;22069;-56
2022/08/29 05:12:42;;;;;;;7.30;3.60;;;;;;;21.10;100.00;99305.20;1740454;80;21170;-56
2022/08/29 05:15:11;;;;;;;5.12;3.20;;;;;;;21.11;100.00;99304.19;1731218;80;21049;-55
2022/08/29 05:17:38;;;;;;;5.60;3.33;;;;;;;21.14;100.00;99306.63;1738316;80;21785;-57
2022/08/29 05:20:07;;;;;;;6.00;3.75;;;;;;;21.16;100.00;99296.41;1735340;80;21100;-56
2022/08/29 05:22:33;;;;;;;4.25;3.47;;;;;;;21.20;100.00;99303.31;1744847;80;21103;-53
2022/08/29 05:25:03;;;;;;;5.97;4.08;;;;;;;21.26;100.00;99308.20;1740280;80;21040;-53
2022/08/29 05:27:30;;;;;;;8.48;4.37;;;;;;;21.30;100.00;99301.89;1748437;80;21089;-52
2022/08/29 05:29:57;;;;;;;8.58;4.25;;;;;;;21.33;100.00;99309.31;1740469;80;21136;-54
2022/08/29 05:32:23;;;;;;;7.33;5.40;;;;;;;21.38;100.00;99303.36;1740402;80;21110;-55
2022/08/29 05:34:50;;;;;;;10.65;4.40;;;;;;;21.43;100.00;99310.62;1737584;80;21045;-57
2022/08/29 05:37:19;;;;;;;10.72;4.53;;;;;;;21.46;100.00;99300.72;1738217;80;21458;-54
2022/08/29 05:39:48;;;;;;;8.28;5.03;;;;;;;21.50;100.00;99303.52;1745977;80;21044;-55
2022/08/29 05:42:15;;;;;;;9.88;4.85;;;;;;;21.52;100.00;99302.32;1737009;80;21815;-54
2022/08/29 05:44:42;;;;;;;4.20;3.58;;;;;;;21.56;100.00;99309.73;1740096;80;21086;-55
2022/08/29 05:47:10;;;;;;;6.78;4.28;;;;;;;21.61;100.00;99311.48;1736157;80;21050;-53
2022/08/29 05:49:38;;;;;;;6.87;4.05;;;;;;;21.67;100.00;99310.89;1739372;80;21041;-56
2022/08/29 05:52:05;;;;;;;10.35;4.65;;;;;;;21.71;100.00;99310.92;1738511;80;21100;-55
2022/08/29 05:54:34;;;;;;;7.45;4.45;;;;;;;21.77;100.00;99308.09;1738414;80;21138;-54
2022/08/29 05:57:00;;;;;;;6.95;5.80;;;;;;;21.82;100.00;99309.33;1741172;80;20993;-54
2022/08/29 05:59:27;;;;;;;8.98;4.42;;;;;;;21.89;100.00;99308.19;1738987;80;21487;-55
2022/08/29 06:01:53;;;;;;;7.92;5.30;;;;;;;21.95;100.00;99303.45;1734685;80;21069;-54
2022/08/29 06:04:19;;;;;;;5.67;4.83;;;;;;;22.01;100.00;99306.98;1737085;80;21520;-53
2022/08/29 06:06:46;;;;;;;13.85;5.28;;;;;;;22.06;100.00;99310.10;1741644;80;21153;-52
2022/08/29 06:09:12;;;;;;;6.00;5.42;;;;;;;22.10;100.00;99311.52;1744337;80;20973;-54
2022/08/29 06:11:39;;;;;;;10.00;6.12;;;;;;;22.15;100.00;99314.64;1728023;80;21099;-53
2022/08/29 06:14:05;;;;;;;12.25;6.25;;;;;;;22.22;100.00;99311.61;1728355;80;21125;-52
2022/08/29 06:16:32;;;;;;;14.15;5.92;;;;;;;22.29;100.00;99309.09;1734591;80;21772;-54
2022/08/29 06:18:59;;;;;;;8.48;5.28;;;;;;;22.36;100.00;99307.46;1729307;80;21173;-53
2022/08/29 06:21:25;;;;;;;8.63;6.58;;;;;;;22.41;100.00;99310.57;1735259;80;21012;-54
2022/08/29 06:23:51;;;;;;;9.83;5.92;;;;;;;22.48;100.00;99313.53;1730190;80;21046;-52
2022/08/29 06:26:18;;;;;;;11.60;6.25;;;;;;;22.54;100.00;99318.39;1735070;80;21041;-55
2022/08/29 06:28:45;;;;;;;8.98;5.62;;;;;;;22.61;100.00;99320.33;1733298;80;21664;-55
2022/08/29 06:31:21;;;;;;;8.33;5.42;;;;;;;22.68;100.00;99321.91;1733319;80;21126;-56
2022/08/29 06:33:50;;;;;;;11.93;4.95;;;;;;;22.76;100.00;99321.14;1742256;80;21033;-53
2022/08/29 06:36:16;;;;;;;6.75;5.05;;;;;;;22.86;100.00;99321.89;1742977;80;21724;-56
2022/08/29 06:38:43;;;;;;;9.85;5.67;;;;;;;22.93;100.00;99325.70;1733719;80;21048;-53
2022/08/29 06:41:14;;;;;;;7.45;5.55;;;;;;;23.00;100.00;99326.77;1735513;80;21069;-54
2022/08/29 06:43:42;;;;;;;7.37;5.03;;;;;;;23.08;100.00;99330.92;1739749;80;22259;-54
2022/08/29 06:46:24;;;;;;;5.37;4.87;;;;;;;23.14;100.00;99330.80;1738978;80;21376;-53
2022/08/29 06:48:51;;;;;;;8.68;4.28;;;;;;;23.21;100.00;99332.73;1715552;80;21101;-57
2022/08/29 06:51:18;;;;;;;5.85;5.25;;;;;;;23.31;100.00;99335.31;1737469;80;20949;-53
2022/08/29 06:53:44;;;;;;;9.15;4.72;;;;;;;23.39;100.00;99338.95;1739451;80;21320;-56
2022/08/29 06:56:11;;;;;;;10.15;4.15;;;;;;;23.48;100.00;99335.73;1730822;80;21317;-57
2022/08/29 06:58:37;;;;;;;5.75;5.22;;;;;;;23.57;100.00;99339.40;1745342;80;21975;-58
2022/08/29 07:01:11;;;;;;;10.03;4.85;;;;;;;23.67;100.00;99339.61;1729323;80;21021;-57
2022/08/29 07:03:37;;;;;;;6.55;4.60;;;;;;;23.74;100.00;99341.17;1728215;80;21425;-57
2022/08/29 07:06:04;;;;;;;10.82;5.28;;;;;;;23.84;100.00;99341.03;1739925;80;21056;-57
2022/08/29 07:08:31;;;;;;;10.30;4.75;;;;;;;23.93;100.00;99344.14;1743549;80;21500;-57
2022/08/29 07:10:57;;;;;;;6.40;4.60;;;;;;;24.01;100.00;99343.64;1733989;80;20925;-58
2022/08/29 07:13:24;;;;;;;9.55;5.65;;;;;;;24.13;100.00;99338.17;1741184;80;21362;-58
2022/08/29 07:15:50;;;;;;;6.62;4.95;;;;;;;24.24;100.00;99338.91;1695037;82;20895;-58
2022/08/29 07:18:17;;;;;;;7.17;5.75;;;;;;;24.32;100.00;99337.54;1735087;80;20974;-57
2022/08/29 07:20:43;;;;;;;9.28;5.08;;;;;;;24.39;100.00;99333.93;1728807;80;21215;-58
2022/08/29 07:23:10;;;;;;;6.90;5.50;;;;;;;24.50;100.00;99334.08;1732352;80;21088;-58
2022/08/29 07:25:37;;;;;;;10.55;4.83;;;;;;;24.60;100.00;99336.14;1735249;80;21045;-58
2022/08/29 07:28:04;;;;;;;8.00;5.45;;;;;;;24.68;100.00;99336.13;1743689;80;21449;-57
2022/08/29 07:30:30;;;;;;;6.50;4.45;;;;;;;24.78;100.00;99329.92;1726105;80;21048;-57
2022/08/29 07:32:57;;;;;;;9.23;5.10;;;;;;;24.89;100.00;99333.70;1680822;83;22370;-57
2022/08/29 07:35:24;;;;;;;7.47;4.70;;;;;;;25.00;100.00;99333.03;1733629;80;20993;-57
2022/08/29 07:37:53;;;;;;;9.55;5.53;;;;;;;25.08;100.00;99334.38;1733268;80;21076;-58
2022/08/29 07:40:20;;;;;;;9.73;5.50;;;;;;;25.16;100.00;99330.22;1732461;80;21001;-57
2022/08/29 07:42:47;;;;;;;6.25;4.05;;;;;;;25.25;100.00;99333.30;1730069;80;21075;-57
2022/08/29 07:45:13;;;;;;;5.58;4.37;;;;;;;25.34;100.00;99339.63;1733955;80;21532;-58
2022/08/29 07:47:41;;;;;;;6.65;4.87;;;;;;;25.42;100.00;99336.84;1734359;80;21125;-56
2022/08/29 07:50:09;;;;;;;7.12;4.87;;;;;;;25.50;100.00;99332.16;1734804;80;21131;-57
2022/08/29 07:52:35;;;;;;;8.78;5.75;;;;;;;25.59;100.00;99331.63;1732320;80;21037;-56
2022/08/29 07:55:03;;;;;;;8.98;4.95;;;;;;;25.68;100.00;99338.83;1734116;80;21470;-57
2022/08/29 07:57:29;;;;;;;7.83;5.05;;;;;;;25.77;100.00;99334.98;1736163;80;21146;-57
2022/08/29 07:59:56;;;;;;;5.78;5.25;;;;;;;25.86;100.00;99342.69;1733269;80;21104;-53
2022/08/29 08:02:22;;;;;;;12.43;5.03;;;;;;;25.92;100.00;99341.44;1739190;80;21069;-56
2022/08/29 08:04:48;;;;;;;6.62;4.40;;;;;;;25.99;100.00;99341.56;1735042;80;21418;-56
2022/08/29 08:07:15;;;;;;;7.87;4.83;;;;;;;26.06;100.00;99340.30;1731951;80;21056;-54
2022/08/29 08:12:09;;;;;;;5.97;4.85;;;;;;;26.25;100.00;99329.66;1871142;75;22670;-53
2022/08/29 08:14:36;;;;;;;8.10;5.53;;;;;;;26.29;100.00;99338.44;1845598;77;21007;-52
2022/08/29 08:17:03;;;;;;;8.10;4.70;;;;;;;26.35;100.00;99341.34;1843345;75;21517;-52
2022/08/29 08:19:29;;;;;;;8.63;4.22;;;;;;;26.42;100.00;99341.97;1847806;75;21101;-54
2022/08/29 08:21:57;;;;;;;10.60;5.10;;;;;;;26.48;100.00;99337.08;1838738;77;21114;-53
2022/08/29 08:24:24;;;;;;;8.43;4.67;;;;;;;26.56;100.00;99353.05;1838160;76;20973;-56
2022/08/29 08:26:50;;;;;;;7.17;4.08;;;;;;;26.64;100.00;99343.83;1847711;76;20996;-56
2022/08/29 08:29:17;;;;;;;6.33;3.65;;;;;;;26.71;100.00;99347.59;1843801;77;21132;-57
2022/08/29 08:31:45;;;;;;;3.22;2.83;;;;;;;26.79;100.00;99341.13;1846894;76;21017;-57
2022/08/29 08:34:14;;;;;;;4.10;3.80;;;;;;;26.86;100.00;99344.85;1839219;76;21146;-57
2022/08/29 08:36:41;;;;;;;5.30;3.52;;;;;;;26.94;100.00;99341.52;1843185;76;21033;-57
2022/08/29 08:39:08;;;;;;;7.75;4.28;;;;;;;27.03;100.00;99343.16;1844312;76;21068;-58
2022/08/29 08:41:58;;;;;;;5.55;5.03;;;;;;;27.10;100.00;99341.34;1854119;77;21142;-55
2022/08/29 08:44:54;;;;;;;6.55;3.95;;;;;;;27.16;100.00;99343.00;1802717;78;22341;-56
2022/08/29 08:47:27;;;;;;;7.03;3.75;;;;;;;27.23;100.00;99343.42;1777745;79;21448;-55
2022/08/29 08:49:59;;;;;;;5.65;3.77;;;;;;;27.30;100.00;99343.02;1800761;78;21420;-54
2022/08/29 08:52:57;;;;;;;7.17;2.55;;;;;;;27.38;100.00;99347.59;1802315;77;21427;-53
2022/08/29 08:55:46;;;;;;;7.25;3.20;;;;;;;27.45;100.00;99341.62;1785286;78;21092;-54
2022/08/29 08:58:18;;;;;;;6.58;3.25;;;;;;;27.55;100.00;99336.70;1782767;78;22129;-53
2022/08/29 09:00:49;;;;;;;3.72;3.37;;;;;;;27.63;100.00;99337.12;1779510;78;21038;-57
2022/08/29 09:03:45;;;;;;;6.25;2.80;;;;;;;27.70;100.00;99344.96;1777528;78;21524;-55
2022/08/29 09:06:25;;;;;;;8.43;2.70;;;;;;;27.76;100.00;99346.42;1785468;79;21077;-55
2022/08/29 09:09:06;;;;;;;4.92;3.10;;;;;;;27.83;100.00;99345.11;1744831;80;21229;-52
2022/08/29 09:11:55;;;;;;;4.17;2.75;;;;;;;27.88;100.00;99346.79;1753815;79;21053;-53
2022/08/29 09:14:45;;;;;;;7.75;2.90;;;;;;;27.94;100.00;99350.67;1753849;79;21092;-54
2022/08/29 09:17:26;;;;;;;4.92;3.02;;;;;;;28.01;100.00;99347.45;1756312;79;21026;-53
2022/08/29 09:19:52;;;;;;;6.45;2.98;;;;;;;28.11;100.00;99342.47;1759198;80;21010;-53
2022/08/29 09:22:25;;;;;;;2.70;2.50;;;;;;;28.20;100.00;99346.86;1706689;79;21841;-53
2022/08/29 09:25:01;;;;;;;4.60;3.03;;;;;;;28.29;100.00;99342.05;1760275;79;21089;-54
2022/08/29 09:27:30;;;;;;;4.80;2.25;;;;;;;28.34;100.00;99341.78;1756959;79;21323;-55
2022/08/29 09:30:11;;;;;;;3.62;2.52;;;;;;;28.37;100.00;99334.48;1756284;79;20972;-53
2022/08/29 09:33:01;;;;;;;5.97;2.80;;;;;;;28.42;100.00;99338.87;1754955;79;20896;-55
2022/08/29 09:35:39;;;;;;;3.90;3.60;;;;;;;28.50;100.00;99341.51;1759528;79;21487;-55
2022/08/29 09:38:20;;;;;;;3.77;1.77;;;;;;;28.59;100.00;99340.84;1760412;79;20895;-56
2022/08/29 09:40:57;;;;;;;4.35;2.77;;;;;;;28.66;100.00;99345.94;1760656;79;20947;-54
2022/08/29 09:43:34;;;;;;;3.80;2.20;;;;;;;28.74;100.00;99335.24;1760132;80;21360;-55
2022/08/29 09:46:19;;;;;;;4.60;2.50;;;;;;;28.80;100.00;99337.23;1733619;80;20961;-55
2022/08/29 09:48:46;;;;;;;5.15;2.02;;;;;;;28.82;100.00;99344.82;1760770;79;21420;-54
2022/08/29 09:51:32;;;;;;;3.98;2.58;;;;;;;28.83;100.00;99338.23;1751066;80;20962;-54
2022/08/29 09:54:26;;;;;;;4.62;2.58;;;;;;;28.86;100.00;99340.58;1762665;80;20851;-54
2022/08/29 09:57:09;;;;;;;5.22;2.25;;;;;;;28.90;100.00;99345.53;1758152;80;20914;-54
2022/08/29 09:59:39;;;;;;;3.17;2.37;;;;;;;28.96;100.00;99338.32;1760174;79;20974;-55
2022/08/29 10:02:20;;;;;;;7.35;2.80;;;;;;;29.02;100.00;99333.34;1765413;79;21062;-55
2022/08/29 10:04:51;;;;;;;10.48;2.58;;;;;;;29.06;100.00;99326.88;1760907;79;20943;-55
2022/08/29 10:07:24;;;;;;;6.53;2.33;;;;;;;29.11;100.00;99341.83;1761735;79;21406;-55
2022/08/29 10:10:01;;;;;;;6.70;2.80;;;;;;;29.14;100.00;99345.59;1784150;78;21101;-53
2022/08/29 10:12:54;;;;;;;12.15;4.00;;;;;;;29.18;100.00;99339.09;1748732;80;20984;-55
2022/08/29 10:15:28;;;;;;;3.85;1.90;;;;;;;29.19;100.00;99336.13;1753312;80;21106;-54
2022/08/29 10:21:09;;;;;;;6.60;2.98;;;;;;;29.20;100.00;99329.53;1753221;80;21125;-52
2022/08/29 10:23:41;;;;;;;3.75;2.05;;;;;;;29.25;100.00;99330.32;1759954;80;21074;-54
2022/08/29 10:26:31;;;;;;;3.90;2.08;;;;;;;29.30;100.00;99330.02;1737687;80;21039;-53
2022/08/29 10:29:14;;;;;;;6.85;2.10;;;;;;;29.37;100.00;99332.00;1762522;79;20993;-55
2022/08/29 10:32:06;;;;;;;2.52;2.33;;;;;;;29.41;100.00;99332.80;1759175;79;21120;-55
2022/08/29 10:35:07;;;;;;;5.58;2.20;;;;;;;29.45;100.00;99337.37;1769012;79;21127;-54
2022/08/29 10:38:12;;;;;;;4.42;2.00;;;;;;;29.49;100.00;99342.33;1761232;80;22275;-53
2022/08/29 10:40:48;;;;;;;2.58;2.12;;;;;;;29.48;100.00;99341.14;1779408;79;21095;-55
2022/08/29 10:43:49;;;;;;;3.35;2.20;;;;;;;29.46;100.00;99337.70;1779770;79;21361;-55
2022/08/29 10:46:47;;;;;;;3.70;1.70;;;;;;;29.45;100.00;99334.61;1757077;79;21104;-52
2022/08/29 10:49:34;;;;;;;9.43;1.98;;;;;;;29.44;100.00;99331.50;1762344;79;21076;-54
2022/08/29 10:52:25;;;;;;;5.03;1.75;;;;;;;29.43;100.00;99329.82;1767932;79;21047;-53
2022/08/29 10:55:09;;;;;;;6.53;1.62;;;;;;;29.40;100.00;99334.38;1763233;79;21013;-53
2022/08/29 10:57:47;;;;;;;3.92;1.60;;;;;;;29.35;100.00;99326.62;1762184;79;21078;-55
2022/08/29 11:00:23;;;;;;;4.28;1.45;;;;;;;29.27;100.00;99331.80;1762738;79;21542;-54
2022/08/29 11:03:24;;;;;;;4.17;1.72;;;;;;;29.23;100.00;99323.59;1760248;79;21021;-55
2022/08/29 11:06:01;;;;;;;2.58;1.37;;;;;;;29.26;100.00;99320.39;1763224;79;21111;-55
2022/08/29 11:08:31;;;;;;;3.98;1.45;;;;;;;29.27;100.00;99331.80;1764206;79;21016;-55
2022/08/29 11:10:58;;;;;;;2.58;1.55;;;;;;;29.23;100.00;99329.13;1762264;79;21487;-53
2022/08/29 11:13:35;;;;;;;5.40;1.80;;;;;;;29.22;100.00;99336.26;1762486;79;21055;-54
2022/08/29 11:16:34;;;;;;;5.58;1.72;;;;;;;29.17;100.00;99330.48;1762745;79;21041;-53
2022/08/29 11:19:25;;;;;;;4.08;1.87;;;;;;;29.15;100.00;99325.67;1758388;79;21444;-56
2022/08/29 11:21:57;;;;;;;5.12;1.50;;;;;;;29.18;100.00;99323.85;1765618;79;21088;-52
2022/08/29 11:24:26;;;;;;;5.22;1.50;;;;;;;29.20;100.00;99325.38;1762136;79;21322;-53
2022/08/29 11:27:15;;;;;;;2.90;1.67;;;;;;;29.18;100.00;99331.64;1758784;79;21054;-55
2022/08/29 11:30:01;;;;;;;5.40;1.70;;;;;;;29.14;100.00;99328.97;1763423;79;21108;-54
2022/08/29 11:32:45;;;;;;;5.55;1.65;;;;;;;29.08;100.00;99324.77;1765383;79;21086;-51
2022/08/29 11:35:40;;;;;;;4.83;1.80;;;;;;;29.04;100.00;99317.91;1764370;79;21064;-54
2022/08/29 11:38:12;;;;;;;2.37;1.50;;;;;;;29.01;100.00;99323.88;1760350;79;21357;-53
2022/08/29 11:41:17;;;;;;;2.00;1.45;;;;;;;28.97;100.00;99320.11;1759161;79;21130;-55
2022/08/29 11:43:48;;;;;;;8.15;1.95;;;;;;;28.98;100.00;99320.44;1763845;79;21371;-53
2022/08/29 11:46:14;;;;;;;3.45;1.80;;;;;;;29.02;100.00;99313.09;1759280;79;21064;-52
2022/08/29 11:48:47;;;;;;;4.87;1.87;;;;;;;29.03;100.00;99317.05;1763638;79;21043;-52
2022/08/29 11:51:36;;;;;;;5.37;2.00;;;;;;;29.04;100.00;99309.59;1754208;79;21071;-54
2022/08/29 11:54:30;;;;;;;3.90;1.42;;;;;;;29.06;100.00;99316.66;1761479;79;21339;-53